Time;durP1;ratioP1;P1;durP2;ratioP2;P2;SDS_P1;SDS_P2;PMS_P1;PMS_P2;Temp;Humidity;BMP_temperature;BMP_pressure;BME280_temperature;BME280_humidity;BME280_pressure;Samples;Min_cycle;Max_cycle;Signal;HPM_P1;HPM_P2
2021/06/15 05:30:49;;;;;;;12.63;8.00;;;;;;;16.69;68.44;100619.09;1570435;85;26034;-67
2021/06/15 05:33:16;;;;;;;14.28;8.80;;;;;;;16.86;67.75;100622.19;1584222;87;25877;-67
2021/06/15 05:35:42;;;;;;;13.80;8.58;;;;;;;17.03;67.52;100616.25;1586039;88;27319;-68
2021/06/15 05:38:11;;;;;;;14.23;8.23;;;;;;;17.19;66.75;100621.20;1586350;87;25928;-66
2021/06/15 05:40:38;;;;;;;12.63;7.75;;;;;;;17.35;66.58;100624.81;1599471;88;27194;-67
2021/06/15 05:43:04;;;;;;;10.50;7.72;;;;;;;17.54;66.35;100625.53;1589747;87;28183;-68
2021/06/15 05:45:30;;;;;;;13.00;7.67;;;;;;;17.76;65.75;100631.61;1610118;87;25900;-67
2021/06/15 05:47:59;;;;;;;13.88;8.00;;;;;;;17.95;65.12;100630.97;1607253;87;27351;-68
2021/06/15 05:50:26;;;;;;;20.57;9.83;;;;;;;18.16;64.66;100629.34;1613879;87;25912;-66
2021/06/15 05:52:53;;;;;;;11.80;7.58;;;;;;;18.39;64.46;100638.30;1618060;87;26669;-68
2021/06/15 05:55:20;;;;;;;17.15;8.35;;;;;;;18.63;63.53;100629.91;1612539;87;25940;-67
2021/06/15 05:57:46;;;;;;;14.35;8.00;;;;;;;18.85;62.32;100633.19;1621588;86;25882;-68
2021/06/15 06:00:15;;;;;;;18.30;8.05;;;;;;;18.99;61.45;100627.23;1610152;85;29629;-67
2021/06/15 06:02:43;;;;;;;18.70;8.70;;;;;;;19.16;61.40;100635.04;1613220;87;25948;-67
2021/06/15 06:10:24;;;;;;;14.87;8.23;;;;;;;19.65;59.83;100638.36;1617444;87;26322;-67
2021/06/15 06:12:50;;;;;;;14.38;8.30;;;;;;;19.98;60.17;100640.59;1614702;87;27348;-68
2021/06/15 06:15:17;;;;;;;15.95;7.67;;;;;;;20.29;59.95;100634.06;1598525;88;25887;-67
2021/06/15 06:17:43;;;;;;;14.13;7.70;;;;;;;20.60;58.99;100639.09;1563228;90;25914;-67
2021/06/15 06:20:14;;;;;;;12.70;7.60;;;;;;;20.88;58.08;100637.97;1613401;87;26531;-67
2021/06/15 06:22:41;;;;;;;14.75;6.83;;;;;;;21.12;57.81;100636.72;1615263;87;25838;-66
2021/06/15 06:25:13;;;;;;;16.77;7.10;;;;;;;21.38;57.22;100637.24;1611229;87;27361;-67
2021/06/15 06:27:40;;;;;;;13.45;7.30;;;;;;;21.63;56.83;100631.28;1606563;86;25902;-67
2021/06/15 06:30:09;;;;;;;12.13;7.05;;;;;;;21.93;56.59;100627.64;1603469;87;26650;-67
2021/06/15 06:32:37;;;;;;;11.43;6.30;;;;;;;22.20;55.54;100633.80;1609114;87;32568;-67
2021/06/15 06:35:05;;;;;;;13.20;6.35;;;;;;;22.46;54.76;100638.97;1617296;87;25892;-67
2021/06/15 06:37:32;;;;;;;17.55;6.95;;;;;;;22.75;54.18;100643.53;1609484;87;27368;-67
2021/06/15 06:39:59;;;;;;;15.15;6.58;;;;;;;23.06;53.79;100641.38;1606972;87;25894;-67
2021/06/15 06:42:25;;;;;;;14.68;7.10;;;;;;;23.29;52.89;100635.59;1610362;86;25889;-67
2021/06/15 06:44:53;;;;;;;15.75;7.08;;;;;;;23.45;51.93;100635.84;1601495;87;26344;-67
2021/06/15 06:47:22;;;;;;;9.45;6.10;;;;;;;23.57;49.90;100636.08;1607084;86;25887;-67
2021/06/15 06:49:49;;;;;;;9.93;6.42;;;;;;;23.61;49.55;100636.27;1598132;87;27406;-67
2021/06/15 06:52:17;;;;;;;11.40;6.47;;;;;;;23.72;49.49;100635.52;1587774;87;25876;-67
2021/06/15 06:54:43;;;;;;;12.25;5.92;;;;;;;23.92;49.76;100631.24;1588887;88;25891;-67
2021/06/15 06:57:10;;;;;;;9.60;5.75;;;;;;;24.18;48.88;100634.25;1597344;88;26684;-67
2021/06/15 06:59:36;;;;;;;10.98;5.10;;;;;;;24.32;48.25;100625.77;1598147;87;25709;-67
2021/06/15 07:02:03;;;;;;;14.50;6.58;;;;;;;24.48;46.90;100629.50;1601464;87;27345;-67
2021/06/15 07:04:30;;;;;;;14.03;5.53;;;;;;;24.59;45.86;100624.80;1601383;87;25980;-67
2021/06/15 07:06:58;;;;;;;12.58;6.35;;;;;;;24.72;46.16;100626.54;1606369;87;25750;-67
2021/06/15 07:09:25;;;;;;;12.30;6.17;;;;;;;24.92;46.23;100628.28;1601834;87;26637;-67
2021/06/15 07:11:51;;;;;;;12.40;5.40;;;;;;;25.14;45.20;100629.00;1607901;87;25949;-67
2021/06/15 07:14:17;;;;;;;9.48;5.33;;;;;;;25.09;43.13;100619.13;1596834;88;27299;-67
2021/06/15 07:16:44;;;;;;;14.73;6.00;;;;;;;25.05;43.39;100627.27;1595893;88;25971;-67
2021/06/15 07:19:10;;;;;;;11.35;5.47;;;;;;;25.01;43.55;100624.48;1604507;87;25869;-67
2021/06/15 07:21:36;;;;;;;11.18;6.00;;;;;;;25.07;43.57;100618.75;1565364;90;26593;-67
2021/06/15 07:24:05;;;;;;;9.05;5.45;;;;;;;25.30;44.01;100625.80;1557525;90;25982;-67
2021/06/15 07:26:31;;;;;;;8.68;5.28;;;;;;;25.63;43.65;100622.30;1540027;92;28060;-66
2021/06/15 07:28:59;;;;;;;8.30;5.17;;;;;;;25.85;42.55;100622.95;1513292;93;25962;-67
2021/06/15 07:31:26;;;;;;;8.63;5.50;;;;;;;26.07;42.51;100618.86;1503079;93;25947;-66
2021/06/15 07:33:52;;;;;;;10.90;5.40;;;;;;;26.30;41.56;100623.63;1505735;93;26661;-67
2021/06/15 07:36:19;;;;;;;8.38;4.92;;;;;;;26.40;41.58;100624.14;1501528;91;25998;-67
2021/06/15 07:38:45;;;;;;;11.30;5.75;;;;;;;26.44;40.12;100620.14;1513551;92;27192;-68
2021/06/15 07:41:12;;;;;;;9.88;6.25;;;;;;;26.40;39.26;100623.53;1510270;92;25773;-67
2021/06/15 07:43:38;;;;;;;8.78;5.40;;;;;;;26.17;38.77;100621.94;1524621;92;25937;-69
2021/06/15 07:46:08;;;;;;;12.70;5.85;;;;;;;26.15;39.02;100620.19;1558502;87;26018;-68
2021/06/15 07:48:35;;;;;;;9.43;4.97;;;;;;;26.37;39.12;100623.56;1599632;87;25991;-68
2021/06/15 07:51:03;;;;;;;10.13;5.45;;;;;;;26.72;39.28;100621.70;1580230;86;27402;-69
2021/06/15 07:53:30;;;;;;;8.30;4.63;;;;;;;27.13;39.23;100620.84;1599091;86;25888;-66
2021/06/15 07:55:56;;;;;;;8.33;5.03;;;;;;;27.31;37.23;100615.89;1599430;86;25926;-66
2021/06/15 07:58:23;;;;;;;8.68;5.00;;;;;;;27.28;36.32;100613.94;1601230;87;26208;-67
2021/06/15 08:00:50;;;;;;;10.70;5.60;;;;;;;27.26;36.76;100622.45;1602864;87;26070;-67
2021/06/15 08:03:16;;;;;;;8.35;4.85;;;;;;;27.23;35.74;100619.92;1637884;85;29507;-68
2021/06/15 08:05:42;;;;;;;7.90;5.35;;;;;;;27.11;36.06;100619.86;1636879;85;25852;-67
2021/06/15 08:08:09;;;;;;;12.00;5.37;;;;;;;27.00;35.87;100614.45;1629441;85;25709;-68
2021/06/15 08:10:35;;;;;;;9.58;5.72;;;;;;;27.10;36.65;100613.34;1634188;86;25932;-68
2021/06/15 08:13:02;;;;;;;10.35;5.30;;;;;;;27.28;37.41;100619.48;1637413;86;25830;-68
2021/06/15 08:15:29;;;;;;;8.05;4.72;;;;;;;27.64;36.82;100612.67;1627715;86;27333;-68
2021/06/15 08:17:55;;;;;;;8.78;4.85;;;;;;;27.80;35.58;100608.64;1632162;86;25901;-68
2021/06/15 08:20:22;;;;;;;12.98;5.53;;;;;;;27.79;35.28;100620.17;1628187;86;25917;-68
2021/06/15 08:22:49;;;;;;;8.63;5.55;;;;;;;27.67;34.89;100619.56;1632458;86;28163;-68
2021/06/15 08:25:18;;;;;;;9.78;5.30;;;;;;;27.49;34.69;100610.08;1629972;86;25716;-68
2021/06/15 08:27:44;;;;;;;9.33;5.17;;;;;;;27.64;35.10;100605.12;1628819;86;27393;-68
2021/06/15 08:30:13;;;;;;;11.18;5.83;;;;;;;27.94;34.84;100606.27;1626618;86;27033;-68
2021/06/15 08:32:40;;;;;;;11.10;5.90;;;;;;;28.22;34.22;100606.43;1625511;85;26441;-68
2021/06/15 08:35:10;;;;;;;10.35;5.60;;;;;;;28.30;33.80;100595.98;1629265;86;25906;-68
2021/06/15 08:37:37;;;;;;;8.15;5.45;;;;;;;28.42;33.63;100594.58;1631525;86;25907;-67
2021/06/15 08:40:06;;;;;;;10.98;5.97;;;;;;;28.48;34.00;100590.86;1629296;86;27319;-68
2021/06/15 08:42:37;;;;;;;11.30;5.50;;;;;;;28.61;33.91;100598.02;1633558;85;25760;-67
2021/06/15 08:45:06;;;;;;;13.58;6.03;;;;;;;28.51;33.57;100600.37;1630324;85;26004;-68
2021/06/15 08:47:32;;;;;;;11.78;7.08;;;;;;;28.44;33.66;100599.89;1614360;86;26005;-68
2021/06/15 08:49:59;;;;;;;13.40;6.37;;;;;;;28.51;32.83;100600.37;1577027;88;26002;-68
2021/06/15 08:52:26;;;;;;;7.72;5.42;;;;;;;28.38;32.42;100600.80;1562304;89;27595;-67
2021/06/15 08:54:55;;;;;;;8.93;5.62;;;;;;;28.18;32.41;100598.77;1580624;89;26175;-68
2021/06/15 08:57:24;;;;;;;11.68;6.05;;;;;;;28.21;33.56;100599.89;1581910;89;25979;-68
2021/06/15 08:59:52;;;;;;;9.85;6.00;;;;;;;28.62;33.74;100594.62;1576289;88;26069;-68
2021/06/15 09:02:19;;;;;;;9.00;6.05;;;;;;;28.87;31.69;100596.94;1572008;89;26516;-68
2021/06/15 09:04:46;;;;;;;10.55;6.15;;;;;;;28.71;32.08;100589.30;1607216;87;27322;-68
2021/06/15 09:07:13;;;;;;;10.23;6.12;;;;;;;28.88;32.71;100595.73;1604878;87;25896;-68
2021/06/15 09:09:47;;;;;;;11.20;5.80;;;;;;;29.15;32.37;100597.56;1614827;87;26117;-67
2021/06/15 09:12:16;;;;;;;12.68;6.28;;;;;;;29.58;33.24;100600.85;1614299;87;25938;-68
2021/06/15 09:14:55;;;;;;;9.80;5.85;;;;;;;30.09;31.01;100600.48;1601767;87;25916;-67
2021/06/15 09:17:30;;;;;;;11.18;6.78;;;;;;;30.26;30.92;100594.28;1619259;86;27567;-66
2021/06/15 09:20:14;;;;;;;9.85;6.42;;;;;;;30.20;29.90;100591.22;1606439;87;25850;-66
2021/06/15 09:22:41;;;;;;;9.08;5.20;;;;;;;30.05;29.81;100588.00;1615074;86;26015;-66
2021/06/15 09:25:11;;;;;;;8.90;5.35;;;;;;;30.02;30.21;100593.66;1616660;86;26740;-66
2021/06/15 09:27:38;;;;;;;10.68;5.80;;;;;;;29.86;29.96;100593.06;1611826;87;25863;-67
2021/06/15 09:30:09;;;;;;;10.30;6.00;;;;;;;29.78;29.71;100593.83;1616402;86;27329;-67
2021/06/15 09:32:40;;;;;;;10.23;5.72;;;;;;;29.64;29.97;100605.30;1626670;86;26535;-66
2021/06/15 09:35:11;;;;;;;10.93;5.12;;;;;;;29.58;29.34;100604.41;1620347;87;26304;-65
2021/06/15 09:37:46;;;;;;;10.23;5.03;;;;;;;29.62;29.98;100601.55;1613416;87;26696;-66
2021/06/15 09:40:23;;;;;;;11.35;6.20;;;;;;;29.90;30.43;100596.53;1615358;87;26518;-66
2021/06/15 09:43:06;;;;;;;10.13;5.50;;;;;;;30.23;29.87;100600.11;1615941;87;28187;-66
2021/06/15 09:45:45;;;;;;;12.23;6.00;;;;;;;30.51;29.72;100594.44;1618099;86;25947;-66
2021/06/15 09:48:36;;;;;;;13.30;6.17;;;;;;;30.94;29.62;100588.89;1607067;87;25913;-66
2021/06/15 09:51:18;;;;;;;10.93;5.53;;;;;;;31.23;28.95;100583.28;1581816;88;26015;-66
2021/06/15 09:53:50;;;;;;;9.98;6.05;;;;;;;31.44;28.89;100587.42;1556698;90;26134;-67
2021/06/15 09:56:17;;;;;;;11.78;5.80;;;;;;;31.59;28.25;100582.20;1565703;90;28529;-66
2021/06/15 09:58:50;;;;;;;12.07;6.70;;;;;;;31.16;27.43;100583.47;1552834;90;26115;-66
2021/06/15 10:01:34;;;;;;;14.18;5.87;;;;;;;31.09;27.38;100584.46;1565371;90;26607;-66
2021/06/15 10:04:19;;;;;;;13.93;6.47;;;;;;;30.84;27.67;100576.17;1571022;90;26001;-66
2021/06/15 10:06:52;;;;;;;12.18;5.53;;;;;;;30.90;27.41;100578.61;1563457;89;25929;-64
2021/06/15 10:09:32;;;;;;;10.72;5.80;;;;;;;30.54;27.23;100580.20;1563637;90;28012;-65
2021/06/15 10:12:07;;;;;;;11.60;6.15;;;;;;;30.14;27.35;100572.84;1559959;89;25928;-67
2021/06/15 10:14:38;;;;;;;9.88;5.35;;;;;;;30.04;27.96;100566.15;1590929;88;25955;-66
2021/06/15 10:17:04;;;;;;;7.10;5.45;;;;;;;30.22;28.65;100565.67;1565704;89;25935;-66
2021/06/15 10:19:31;;;;;;;12.03;5.47;;;;;;;30.49;28.50;100564.77;1605327;87;25988;-67
2021/06/15 10:21:59;;;;;;;9.30;5.83;;;;;;;30.70;28.09;100562.64;1609474;86;27519;-65
2021/06/15 10:24:27;;;;;;;8.45;5.53;;;;;;;30.75;27.62;100562.09;1629522;86;25938;-64
2021/06/15 10:26:54;;;;;;;7.37;5.25;;;;;;;30.47;27.34;100556.06;1636731;85;25879;-65
2021/06/15 10:29:22;;;;;;;9.15;6.25;;;;;;;30.53;28.00;100556.33;1636469;85;26590;-65
2021/06/15 10:31:52;;;;;;;11.68;6.37;;;;;;;30.73;26.93;100558.94;1640852;85;25603;-64
2021/06/15 10:35:01;;;;;;;10.38;6.75;;;;;;;30.35;27.29;100547.00;1639349;86;27578;-64
2021/06/15 10:37:38;;;;;;;8.70;6.10;;;;;;;30.47;27.41;100554.66;1641652;85;26542;-65
2021/06/15 10:40:19;;;;;;;11.85;6.35;;;;;;;30.63;27.75;100544.67;1612500;86;25911;-64
2021/06/15 10:43:16;;;;;;;13.78;5.95;;;;;;;30.98;26.71;100547.70;1631462;85;26025;-65
2021/06/15 10:45:52;;;;;;;10.88;5.78;;;;;;;31.04;27.09;100545.91;1620626;86;26623;-65
2021/06/15 10:48:24;;;;;;;9.40;5.80;;;;;;;31.25;27.44;100548.06;1628675;86;27337;-67
2021/06/15 10:50:58;;;;;;;9.90;5.72;;;;;;;31.61;26.71;100539.98;1617995;87;26596;-68
2021/06/15 10:53:40;;;;;;;10.93;5.80;;;;;;;31.80;26.48;100542.35;1629413;86;25816;-68
2021/06/15 10:56:10;;;;;;;8.83;5.70;;;;;;;32.13;26.67;100539.89;1626447;86;26631;-68
2021/06/15 10:58:47;;;;;;;11.93;6.42;;;;;;;32.39;26.23;100541.38;1632567;86;25912;-68
2021/06/15 11:01:26;;;;;;;10.13;5.85;;;;;;;32.58;25.66;100528.92;1632071;86;27349;-68
2021/06/15 11:04:03;;;;;;;9.55;6.17;;;;;;;32.62;25.53;100529.59;1627247;86;26222;-68
2021/06/15 11:06:35;;;;;;;7.85;5.33;;;;;;;32.70;24.53;100544.89;1559167;89;26349;-66
2021/06/15 11:09:16;;;;;;;9.18;5.67;;;;;;;32.23;24.82;100537.34;1576471;88;25919;-65
2021/06/15 11:12:04;;;;;;;8.35;5.95;;;;;;;31.80;24.81;100538.78;1546397;89;25851;-67
2021/06/15 11:14:32;;;;;;;10.40;6.17;;;;;;;31.44;24.75;100536.49;1574439;89;28201;-67
2021/06/15 11:17:00;;;;;;;11.00;5.25;;;;;;;31.27;25.33;100521.85;1555762;89;26009;-67
2021/06/15 11:19:33;;;;;;;8.13;5.53;;;;;;;31.53;26.10;100532.28;1548922;89;25891;-67
2021/06/15 11:22:14;;;;;;;8.43;5.17;;;;;;;31.97;26.44;100511.45;1563860;89;25920;-68
2021/06/15 11:24:48;;;;;;;10.08;5.60;;;;;;;32.48;25.82;100513.30;1561392;89;25902;-68
2021/06/15 11:27:25;;;;;;;9.35;6.40;;;;;;;32.50;24.34;100509.42;1568902;89;27357;-69
2021/06/15 11:29:59;;;;;;;9.35;5.62;;;;;;;32.18;24.13;100512.14;1617501;85;25988;-68
2021/06/15 11:32:36;;;;;;;6.85;4.75;;;;;;;31.74;24.62;100502.23;1615398;86;25739;-68
2021/06/15 11:35:08;;;;;;;8.30;4.37;;;;;;;31.96;25.40;100496.70;1619582;86;28143;-68
2021/06/15 11:37:46;;;;;;;6.35;4.95;;;;;;;32.41;25.06;100498.94;1607084;86;25828;-66
2021/06/15 11:40:33;;;;;;;10.00;4.80;;;;;;;32.18;24.14;100503.75;1617778;86;27322;-64
2021/06/15 11:43:16;;;;;;;8.35;5.08;;;;;;;31.96;24.04;100508.48;1610052;86;25820;-64
2021/06/15 11:45:52;;;;;;;9.73;5.00;;;;;;;32.01;25.07;100493.32;1603148;86;25759;-65
2021/06/15 11:48:32;;;;;;;9.60;6.50;;;;;;;32.37;25.18;100494.87;1627568;85;26654;-65
2021/06/15 11:51:06;;;;;;;9.20;5.80;;;;;;;32.33;24.52;100496.23;1630014;85;26572;-65
2021/06/15 11:53:37;;;;;;;12.90;6.08;;;;;;;32.29;24.32;100488.59;1625263;85;27341;-65
2021/06/15 11:56:08;;;;;;;11.43;5.55;;;;;;;32.05;24.50;100495.22;1628007;85;25998;-65
2021/06/15 11:58:43;;;;;;;16.10;6.28;;;;;;;32.01;25.50;100486.92;1622004;85;25858;-65
2021/06/15 12:01:11;;;;;;;9.65;5.53;;;;;;;32.25;24.91;100484.53;1626270;86;26609;-65
2021/06/15 12:03:47;;;;;;;9.83;5.50;;;;;;;32.12;24.50;100494.36;1625991;86;25928;-65
2021/06/15 12:06:17;;;;;;;8.60;5.47;;;;;;;31.57;24.53;100489.63;1619981;86;27348;-64
2021/06/15 12:08:46;;;;;;;9.78;5.35;;;;;;;31.24;24.65;100489.22;1606389;86;26136;-64
2021/06/15 12:11:17;;;;;;;8.25;4.90;;;;;;;30.95;25.08;100489.95;1630703;86;25675;-64
2021/06/15 12:13:47;;;;;;;10.50;5.40;;;;;;;30.56;25.10;100494.02;1631675;85;25942;-65
2021/06/15 12:16:24;;;;;;;9.90;5.55;;;;;;;30.39;25.83;100484.92;1619912;85;26479;-65
2021/06/15 12:18:49;;;;;;;10.35;6.47;;;;;;;30.72;25.10;100476.44;1603219;86;27889;-65
2021/06/15 12:21:24;;;;;;;9.88;4.97;;;;;;;30.58;25.34;100470.66;1618141;86;25865;-65
2021/06/15 12:24:08;;;;;;;8.25;5.80;;;;;;;30.59;26.26;100475.62;1628651;85;25921;-69
2021/06/15 12:26:43;;;;;;;10.58;5.92;;;;;;;30.85;26.27;100476.44;1624418;86;25981;-70
2021/06/15 12:29:14;;;;;;;10.95;5.62;;;;;;;30.88;25.93;100467.17;1622645;85;26751;-69
2021/06/15 12:31:58;;;;;;;9.20;5.40;;;;;;;30.96;25.56;100468.56;1617802;86;25944;-71
2021/06/15 12:34:28;;;;;;;8.53;5.42;;;;;;;30.89;25.77;100468.13;1617934;86;26585;-68
2021/06/15 12:37:01;;;;;;;9.60;5.45;;;;;;;30.54;24.83;100471.36;1621994;86;25794;-69
2021/06/15 12:39:35;;;;;;;12.65;6.95;;;;;;;30.10;25.48;100465.38;1602763;86;25999;-69
2021/06/15 12:42:10;;;;;;;11.25;5.55;;;;;;;29.78;25.63;100461.42;1620767;86;26649;-69
2021/06/15 12:44:39;;;;;;;9.00;5.22;;;;;;;29.79;26.63;100455.41;1622799;86;27447;-69
2021/06/15 12:47:13;;;;;;;8.63;5.25;;;;;;;30.13;27.27;100453.34;1611660;86;25734;-70
2021/06/15 12:49:52;;;;;;;9.78;5.67;;;;;;;30.42;26.59;100455.38;1624474;86;26123;-68
2021/06/15 12:52:20;;;;;;;12.53;5.65;;;;;;;30.31;26.36;100451.47;1600964;87;26276;-68
2021/06/15 12:54:48;;;;;;;10.43;5.40;;;;;;;30.41;26.22;100451.81;1608707;86;25853;-68
2021/06/15 12:57:26;;;;;;;7.95;5.12;;;;;;;30.41;26.26;100451.81;1609636;86;27410;-68
2021/06/15 13:00:09;;;;;;;7.30;5.47;;;;;;;30.54;26.83;100449.81;1601119;86;25943;-68
2021/06/15 13:02:40;;;;;;;9.03;4.80;;;;;;;30.95;26.93;100446.04;1626411;85;25861;-68
2021/06/15 13:05:12;;;;;;;10.95;5.78;;;;;;;31.44;26.45;100439.31;1633644;86;25935;-68
2021/06/15 13:07:38;;;;;;;8.95;5.15;;;;;;;31.81;26.10;100444.66;1575345;87;25887;-68
2021/06/15 13:10:18;;;;;;;9.85;5.17;;;;;;;32.05;25.70;100436.47;1550881;89;27468;-68
2021/06/15 13:12:47;;;;;;;8.78;5.00;;;;;;;32.14;24.99;100447.75;1558129;89;26156;-68
2021/06/15 13:15:21;;;;;;;9.48;5.33;;;;;;;32.07;25.08;100448.78;1566940;88;25795;-70
2021/06/15 13:17:57;;;;;;;12.65;5.67;;;;;;;32.23;25.13;100452.62;1567996;88;26120;-68
2021/06/15 13:20:26;;;;;;;12.65;5.87;;;;;;;32.38;25.14;100441.08;1565958;88;26758;-68
2021/06/15 13:22:53;;;;;;;11.10;5.60;;;;;;;32.50;24.47;100439.44;1578250;88;30286;-68
2021/06/15 13:25:27;;;;;;;10.80;5.77;;;;;;;32.42;24.00;100433.94;1579138;88;25784;-68
2021/06/15 13:28:00;;;;;;;7.55;5.22;;;;;;;32.43;23.79;100430.69;1567026;89;25954;-68
2021/06/15 13:30:33;;;;;;;6.97;5.15;;;;;;;32.26;23.51;100430.73;1567065;88;27026;-68
2021/06/15 13:33:09;;;;;;;9.15;4.92;;;;;;;32.17;23.53;100423.06;1571339;88;25935;-68
2021/06/15 13:35:48;;;;;;;7.58;5.03;;;;;;;32.07;24.09;100429.83;1583160;88;27985;-67
2021/06/15 13:38:21;;;;;;;10.20;5.08;;;;;;;32.06;23.82;100419.23;1573526;88;26336;-68
2021/06/15 13:40:51;;;;;;;6.90;4.85;;;;;;;31.99;23.69;100413.28;1579420;88;25871;-68
2021/06/15 13:43:23;;;;;;;10.40;5.30;;;;;;;31.96;24.05;100418.38;1580722;89;26011;-68
2021/06/15 13:46:03;;;;;;;6.80;4.45;;;;;;;31.97;23.76;100424.13;1550657;88;26058;-68
2021/06/15 13:48:31;;;;;;;5.22;4.42;;;;;;;31.86;23.65;100422.94;1569702;88;27523;-69
2021/06/15 13:51:00;;;;;;;9.93;5.00;;;;;;;31.71;23.88;100417.08;1586480;88;26047;-67
2021/06/15 13:53:26;;;;;;;9.28;5.08;;;;;;;31.42;23.67;100420.19;1594597;87;26441;-67
2021/06/15 13:55:53;;;;;;;11.03;4.55;;;;;;;31.15;23.52;100419.28;1571356;89;25930;-68
2021/06/15 13:58:19;;;;;;;7.83;4.65;;;;;;;31.03;24.23;100422.88;1533960;90;26454;-68
2021/06/15 14:00:47;;;;;;;10.45;4.80;;;;;;;31.03;24.48;100421.48;1557843;89;27365;-68
2021/06/15 14:03:16;;;;;;;7.50;4.53;;;;;;;31.00;24.61;100427.95;1584512;88;25808;-68
2021/06/15 14:05:46;;;;;;;8.70;4.67;;;;;;;31.00;24.59;100423.14;1577336;88;33608;-68
2021/06/15 14:08:12;;;;;;;8.53;4.53;;;;;;;31.02;24.43;100423.50;1579204;88;26696;-68
2021/06/15 14:10:38;;;;;;;5.72;3.92;;;;;;;31.03;24.19;100427.84;1567219;88;25819;-69
2021/06/15 14:13:06;;;;;;;7.33;4.55;;;;;;;30.99;23.81;100433.36;1563784;88;28024;-68
2021/06/15 14:15:34;;;;;;;6.97;4.37;;;;;;;30.74;23.78;100433.50;1553690;89;35083;-67
2021/06/15 14:18:01;;;;;;;7.80;4.92;;;;;;;30.69;24.75;100422.27;1546331;89;26530;-68
2021/06/15 14:20:31;;;;;;;6.60;4.28;;;;;;;30.85;24.83;100420.00;1560599;89;25976;-67
2021/06/15 14:22:59;;;;;;;8.08;4.55;;;;;;;30.94;24.55;100424.14;1583423;87;26794;-68
2021/06/15 14:25:29;;;;;;;8.38;5.00;;;;;;;30.98;24.30;100415.83;1560727;89;27384;-68
2021/06/15 14:27:58;;;;;;;8.25;4.12;;;;;;;30.98;24.15;100408.08;1559792;89;25781;-68
2021/06/15 14:30:27;;;;;;;6.30;4.40;;;;;;;30.84;24.07;100412.84;1556571;88;27290;-68
2021/06/15 14:32:55;;;;;;;7.42;4.90;;;;;;;30.73;24.22;100417.96;1588471;87;26700;-68
2021/06/15 14:35:22;;;;;;;13.50;4.45;;;;;;;30.61;24.62;100412.53;1585561;87;25722;-68
2021/06/15 14:37:50;;;;;;;7.87;5.37;;;;;;;30.54;24.40;100404.38;1628834;86;27368;-68
2021/06/15 14:40:18;;;;;;;6.55;4.45;;;;;;;30.30;24.21;100404.64;1574386;88;26011;-68
2021/06/15 14:42:47;;;;;;;9.35;4.35;;;;;;;30.05;24.36;100405.96;1624507;85;26076;-68
2021/06/15 14:45:16;;;;;;;7.25;3.83;;;;;;;29.90;24.80;100405.56;1621086;86;26649;-69
2021/06/15 14:47:44;;;;;;;12.80;5.80;;;;;;;29.91;25.07;100400.17;1615141;86;26615;-68
2021/06/15 14:50:12;;;;;;;8.48;4.80;;;;;;;29.97;25.60;100395.02;1615197;86;28352;-69
2021/06/15 14:52:38;;;;;;;10.13;5.22;;;;;;;30.05;25.57;100396.20;1608124;85;25829;-68
2021/06/15 14:55:08;;;;;;;9.23;5.30;;;;;;;29.97;25.47;100395.63;1586744;87;25738;-68
2021/06/15 14:57:35;;;;;;;7.22;5.60;;;;;;;29.71;25.53;100387.14;1632576;84;25938;-69
2021/06/15 15:00:07;;;;;;;8.20;4.92;;;;;;;29.58;26.07;100388.45;1613105;86;26314;-68
2021/06/15 15:02:34;;;;;;;9.38;5.35;;;;;;;29.46;26.18;100386.39;1599734;87;27364;-70
2021/06/15 15:05:00;;;;;;;10.85;5.20;;;;;;;29.31;26.53;100378.99;1597955;87;26467;-69
2021/06/15 15:07:27;;;;;;;6.95;5.10;;;;;;;29.23;26.64;100381.78;1610575;86;26609;-69
2021/06/15 15:09:53;;;;;;;13.18;5.37;;;;;;;29.07;26.75;100374.19;1603486;86;26023;-69
2021/06/15 15:12:19;;;;;;;10.18;5.12;;;;;;;28.96;27.12;100373.65;1616181;86;25929;-69
2021/06/15 15:14:46;;;;;;;8.93;5.80;;;;;;;28.80;27.45;100375.20;1613482;86;27477;-68
2021/06/15 15:17:13;;;;;;;10.32;5.53;;;;;;;28.63;27.73;100368.05;1611213;86;26527;-70
2021/06/15 15:19:40;;;;;;;8.75;5.20;;;;;;;28.47;28.03;100363.98;1636089;85;26234;-71
2021/06/15 15:22:08;;;;;;;9.75;5.20;;;;;;;28.43;28.50;100365.27;1603712;85;25997;-69
2021/06/15 15:24:35;;;;;;;10.28;5.75;;;;;;;28.42;28.31;100364.49;1626027;86;26674;-69
2021/06/15 15:27:03;;;;;;;10.23;5.83;;;;;;;28.43;28.63;100366.66;1624378;85;27321;-68
2021/06/15 15:29:30;;;;;;;13.35;6.83;;;;;;;28.44;29.07;100362.67;1636414;85;25838;-68
2021/06/15 15:31:57;;;;;;;13.15;5.83;;;;;;;28.42;29.01;100360.32;1618794;85;25756;-68
2021/06/15 15:34:23;;;;;;;16.73;6.25;;;;;;;28.31;29.04;100359.14;1617194;86;26972;-69
2021/06/15 15:36:50;;;;;;;13.88;5.90;;;;;;;28.17;29.10;100351.11;1623055;86;25824;-70
2021/06/15 15:39:17;;;;;;;8.48;6.10;;;;;;;28.10;29.23;100352.03;1611083;86;27336;-68
2021/06/15 15:41:43;;;;;;;10.60;5.72;;;;;;;28.03;29.37;100350.02;1612633;85;26641;-69
2021/06/15 15:44:11;;;;;;;8.98;5.85;;;;;;;27.96;29.36;100348.16;1623378;86;25832;-70
2021/06/15 15:46:37;;;;;;;11.68;6.20;;;;;;;27.91;29.77;100343.84;1617059;86;26254;-69
2021/06/15 15:49:10;;;;;;;9.63;5.95;;;;;;;27.87;29.88;100349.29;1610559;85;26362;-73
2021/06/15 15:51:32;;;;;;;10.90;6.30;;;;;;;27.85;30.31;100345.55;1633539;85;27687;-72
2021/06/15 15:53:59;;;;;;;13.70;5.35;;;;;;;27.80;30.35;100354.38;1611417;86;27253;-75
2021/06/15 15:56:26;;;;;;;11.38;5.55;;;;;;;27.73;30.43;100342.02;1611239;85;25778;-72
2021/06/15 15:58:53;;;;;;;8.20;6.42;;;;;;;27.68;30.48;100345.28;1617979;85;26166;-72
2021/06/15 16:01:20;;;;;;;7.05;5.22;;;;;;;27.61;30.53;100349.59;1615062;86;26624;-72
2021/06/15 16:03:47;;;;;;;9.05;5.83;;;;;;;27.52;30.91;100348.15;1612798;86;27674;-79
2021/06/15 16:06:13;;;;;;;8.15;5.87;;;;;;;27.46;31.05;100349.05;1615687;86;25728;-77
2021/06/15 16:08:40;;;;;;;9.45;6.08;;;;;;;27.36;31.03;100347.44;1619830;85;25984;-78
2021/06/15 16:11:06;;;;;;;9.60;5.90;;;;;;;27.28;31.23;100348.77;1585335;88;25853;-77
2021/06/15 16:13:35;;;;;;;9.45;5.95;;;;;;;27.20;31.45;100352.22;1623076;85;25804;-73
2021/06/15 16:16:04;;;;;;;9.88;5.85;;;;;;;27.15;31.73;100345.77;1620538;86;28032;-72
2021/06/15 16:18:30;;;;;;;10.03;6.33;;;;;;;27.11;31.92;100348.44;1585418;86;26018;-73
2021/06/15 16:20:58;;;;;;;9.68;6.15;;;;;;;27.06;32.27;100345.53;1565492;89;25921;-74
2021/06/15 16:23:24;;;;;;;10.30;6.53;;;;;;;27.02;32.29;100350.33;1605493;86;26032;-74
2021/06/15 16:25:51;;;;;;;8.93;6.15;;;;;;;27.02;32.52;100348.95;1604468;86;26754;-73
2021/06/15 16:28:17;;;;;;;11.93;6.53;;;;;;;27.02;32.80;100348.95;1605300;87;27390;-73
2021/06/15 16:30:44;;;;;;;11.43;6.20;;;;;;;27.03;32.90;100349.14;1614125;86;25804;-74
2021/06/15 16:33:12;;;;;;;9.40;5.97;;;;;;;27.02;32.95;100350.33;1617397;86;26850;-76
2021/06/15 16:35:38;;;;;;;7.75;5.85;;;;;;;27.00;33.11;100348.59;1618230;86;26062;-66
2021/06/15 16:38:09;;;;;;;8.80;5.83;;;;;;;27.01;33.11;100358.50;1619536;86;26113;-68
2021/06/15 16:40:33;;;;;;;9.38;6.42;;;;;;;27.00;33.20;100354.14;1609031;86;27404;-67
2021/06/15 16:43:00;;;;;;;14.45;6.70;;;;;;;26.94;33.09;100354.45;1626508;85;25995;-68
2021/06/15 16:45:27;;;;;;;11.55;6.70;;;;;;;26.83;33.24;100354.02;1629214;86;25808;-67
2021/06/15 16:47:54;;;;;;;11.75;6.33;;;;;;;26.77;33.44;100358.45;1629440;86;25928;-68
2021/06/15 16:50:23;;;;;;;10.65;6.80;;;;;;;26.73;33.83;100358.31;1625000;86;26543;-67
2021/06/15 16:52:50;;;;;;;9.78;6.17;;;;;;;26.64;33.85;100364.38;1632006;86;27432;-68
2021/06/15 16:55:18;;;;;;;8.60;5.78;;;;;;;26.57;34.18;100358.91;1626415;86;26506;-68
2021/06/15 16:57:46;;;;;;;14.10;6.10;;;;;;;26.52;34.42;100359.37;1614879;86;25973;-68
2021/06/15 17:00:17;;;;;;;9.75;6.35;;;;;;;26.48;34.64;100363.59;1617290;86;26871;-68
2021/06/15 17:02:45;;;;;;;10.45;6.17;;;;;;;26.46;34.62;100360.45;1617011;86;25792;-69
2021/06/15 17:05:13;;;;;;;7.62;5.65;;;;;;;26.45;34.99;100355.48;1626788;86;30043;-66
2021/06/15 17:07:41;;;;;;;8.93;5.80;;;;;;;26.42;34.69;100364.63;1628580;86;26119;-67
2021/06/15 17:10:13;;;;;;;6.50;5.25;;;;;;;26.40;34.79;100363.49;1624418;85;26537;-69